createdAt,value
2024-03-05T00:01:53.218Z,21.63
2024-03-05T00:04:55.105Z,19.63
2024-03-05T00:07:56.948Z,21.95
2024-03-05T00:10:58.853Z,20.35
2024-03-05T00:14:00.780Z,19.80
2024-03-05T00:17:04.397Z,27.13
2024-03-05T00:20:14.312Z,22.48
2024-03-05T00:23:16.184Z,18.90
2024-03-05T00:26:19.349Z,18.55
2024-03-05T00:29:21.168Z,18.45
2024-03-05T00:32:24.250Z,22.95
2024-03-05T00:35:26.050Z,23.40
2024-03-05T00:38:33.573Z,19.88
2024-03-05T00:41:36.028Z,19.60
2024-03-05T00:44:37.827Z,19.80
2024-03-05T00:47:40.959Z,22.98
2024-03-05T00:50:43.267Z,21.73
2024-03-05T00:53:44.977Z,19.02
2024-03-05T00:56:46.805Z,19.58
2024-03-05T00:59:49.815Z,22.60
2024-03-05T01:02:53.001Z,18.48
2024-03-05T01:05:54.731Z,21.92
2024-03-05T01:08:56.844Z,20.05
2024-03-05T01:11:58.779Z,19.25
2024-03-05T01:15:01.390Z,25.77
2024-03-05T01:18:05.513Z,24.73
2024-03-05T01:21:07.490Z,23.23
2024-03-05T01:24:12.166Z,23.08
2024-03-05T01:27:14.127Z,21.17
2024-03-05T01:30:15.884Z,20.02
2024-03-05T01:33:22.005Z,20.10
2024-03-05T01:36:24.370Z,23.10
2024-03-05T01:39:30.211Z,19.42
2024-03-05T01:42:32.207Z,23.05
2024-03-05T01:45:34.563Z,18.02
2024-03-05T01:48:38.039Z,23.45
2024-03-05T01:51:40.407Z,20.50
2024-03-05T01:54:43.203Z,20.35
2024-03-05T01:57:47.752Z,20.45
2024-03-05T02:00:50.078Z,25.52
2024-03-05T02:03:55.156Z,23.10
2024-03-05T02:09:59.732Z,17.83
2024-03-05T02:13:01.953Z,20.08
2024-03-05T02:16:05.218Z,20.85
2024-03-05T02:19:12.435Z,23.33
2024-03-05T02:22:15.645Z,21.08
2024-03-05T02:25:19.236Z,22.17
2024-03-05T02:28:21.617Z,22.05
2024-03-05T02:31:24.198Z,28.52
2024-03-05T02:34:27.116Z,22.77
2024-03-05T02:37:30.449Z,24.45
2024-03-05T02:40:32.605Z,22.42
2024-03-05T02:43:34.930Z,19.95
2024-03-05T02:46:36.986Z,21.75
2024-03-05T02:49:38.838Z,26.25
2024-03-05T02:52:42.267Z,29.05
2024-03-05T02:55:44.531Z,25.92
2024-03-05T02:58:46.313Z,23.50
2024-03-05T03:01:48.262Z,21.48
2024-03-05T03:04:52.517Z,24.67
2024-03-05T03:07:55.868Z,27.90
2024-03-05T03:10:58.091Z,24.88
2024-03-05T03:13:59.953Z,24.92
2024-03-05T03:17:01.893Z,25.23
2024-03-05T03:20:04.945Z,23.88
2024-03-05T03:23:08.288Z,24.80
2024-03-05T03:26:10.584Z,23.30
2024-03-05T03:29:12.774Z,25.85
2024-03-05T03:32:15.520Z,21.90
2024-03-05T03:35:18.089Z,18.88
2024-03-05T03:38:21.247Z,23.30
2024-03-05T03:41:23.024Z,26.63
2024-03-05T03:44:25.229Z,24.05
2024-03-05T03:47:26.959Z,21.95
2024-03-05T03:50:28.672Z,23.15
2024-03-05T03:53:34.753Z,22.60
2024-03-05T03:56:37.214Z,22.30
2024-03-05T03:59:38.967Z,22.23
2024-03-05T04:02:41.715Z,17.48
2024-03-05T04:05:46.043Z,23.73
2024-03-05T04:08:49.173Z,25.00
2024-03-05T04:11:51.160Z,19.10
2024-03-05T04:14:53.170Z,26.48
2024-03-05T04:17:55.536Z,26.02
2024-03-05T04:20:58.075Z,28.40
2024-03-05T04:24:01.175Z,31.00
2024-03-05T04:27:04.561Z,24.00
2024-03-05T04:30:11.862Z,24.27
2024-03-05T04:33:16.890Z,24.05
2024-03-05T04:39:23.302Z,24.27
2024-03-05T04:42:25.959Z,27.63
2024-03-05T04:45:28.553Z,27.27
2024-03-05T04:48:30.272Z,21.15
2024-03-05T04:51:32.232Z,26.45
2024-03-05T04:54:36.061Z,27.55
2024-03-05T04:57:37.953Z,23.48
2024-03-05T05:00:39.986Z,22.27
2024-03-05T05:03:44.098Z,20.23
2024-03-05T05:06:45.954Z,23.88
2024-03-05T05:09:49.207Z,24.75
2024-03-05T05:12:50.999Z,26.55
2024-03-05T05:15:52.736Z,27.58
2024-03-05T05:18:54.807Z,26.50
2024-03-05T05:21:56.502Z,25.85
2024-03-05T05:25:00.119Z,25.80
2024-03-05T05:28:01.881Z,26.65
2024-03-05T05:31:06.900Z,26.33
2024-03-05T05:37:11.106Z,28.13
2024-03-05T05:40:20.240Z,33.95
2024-03-05T05:43:23.530Z,24.85
2024-03-05T05:46:26.180Z,25.98
2024-03-05T05:49:28.613Z,32.28
2024-03-05T05:52:30.390Z,32.20
2024-03-05T05:55:35.980Z,27.70
2024-03-05T05:58:38.007Z,33.67
2024-03-05T06:01:39.996Z,31.13
2024-03-05T06:04:42.519Z,32.90
2024-03-05T06:07:44.751Z,37.15
2024-03-05T06:10:47.967Z,39.42
2024-03-05T06:13:49.946Z,34.45
2024-03-05T06:16:51.812Z,30.08
2024-03-05T06:19:56.307Z,38.15
2024-03-05T06:23:00.395Z,32.88
2024-03-05T06:26:03.976Z,32.40
2024-03-05T06:29:07.831Z,33.45
2024-03-05T06:32:11.472Z,32.70
2024-03-05T06:35:13.413Z,31.33
2024-03-05T06:38:16.139Z,29.63
2024-03-05T06:41:20.146Z,31.40
2024-03-05T06:44:26.587Z,36.08
2024-03-05T06:47:39.061Z,32.17
2024-03-05T06:50:44.206Z,33.67
2024-03-05T06:54:04.682Z,31.45
2024-03-05T06:57:09.614Z,29.35
2024-03-05T07:00:18.663Z,26.80
2024-03-05T07:03:23.333Z,26.88
2024-03-05T07:06:25.162Z,27.92
2024-03-05T07:09:31.829Z,26.63
2024-03-05T07:12:35.998Z,28.27
2024-03-05T07:15:37.784Z,27.48
2024-03-05T07:18:39.528Z,25.83
2024-03-05T07:21:41.374Z,26.48
2024-03-05T07:24:43.125Z,26.63
2024-03-05T07:27:50.466Z,24.10
2024-03-05T07:30:52.195Z,24.98
2024-03-05T07:33:55.757Z,25.73
2024-03-05T07:36:57.507Z,23.13
2024-03-05T07:39:59.281Z,24.73
2024-03-05T07:43:09.801Z,27.10
2024-03-05T07:46:11.820Z,24.48
2024-03-05T07:49:13.839Z,27.48
2024-03-05T07:52:15.739Z,29.92
2024-03-05T07:55:25.709Z,24.88
2024-03-05T07:58:32.410Z,27.10
2024-03-05T08:01:34.748Z,24.27
2024-03-05T08:04:36.615Z,26.83
2024-03-05T08:07:38.561Z,27.40
2024-03-05T08:10:40.395Z,28.48
2024-03-05T08:13:46.762Z,23.30
2024-03-05T08:16:48.814Z,25.95
2024-03-05T08:19:50.798Z,21.80
2024-03-05T08:22:53.871Z,25.75
2024-03-05T08:25:55.900Z,25.40
2024-03-05T08:28:59.441Z,24.27
2024-03-05T08:32:01.595Z,29.20
2024-03-05T08:35:03.568Z,28.80
2024-03-05T08:38:05.797Z,33.60
2024-03-05T08:41:07.794Z,30.20
2024-03-05T08:44:11.062Z,28.60
2024-03-05T08:47:14.174Z,27.45
2024-03-05T08:50:16.765Z,27.55
2024-03-05T08:53:18.473Z,28.83
2024-03-05T08:56:20.277Z,29.30
2024-03-05T08:59:23.431Z,29.98
2024-03-05T09:02:25.513Z,27.08
2024-03-05T09:05:27.444Z,27.80
2024-03-05T09:08:29.215Z,28.17
2024-03-05T09:11:30.982Z,27.60
2024-03-05T09:14:35.476Z,31.88
2024-03-05T09:17:37.552Z,32.45
2024-03-05T09:20:39.498Z,24.58
2024-03-05T09:23:41.396Z,25.45
2024-03-05T09:26:43.485Z,26.33
2024-03-05T09:29:47.200Z,29.98
2024-03-05T09:32:49.002Z,18.88
2024-03-05T09:35:50.980Z,29.25
2024-03-05T09:38:52.886Z,20.02
2024-03-05T09:41:54.714Z,28.15
2024-03-05T09:44:57.812Z,26.25
2024-03-05T09:48:00.334Z,24.45
2024-03-05T09:51:03.437Z,23.95
2024-03-05T09:54:07.385Z,18.83
2024-03-05T09:57:09.524Z,25.33
2024-03-05T10:00:21.756Z,20.70
2024-03-05T10:03:23.743Z,29.85
2024-03-05T10:06:26.305Z,23.27
2024-03-05T10:09:28.411Z,24.58
2024-03-05T10:12:30.624Z,31.20
2024-03-05T10:15:37.021Z,23.55
2024-03-05T10:18:38.808Z,27.70
2024-03-05T10:21:40.943Z,23.70
2024-03-05T10:24:42.765Z,19.08
2024-03-05T10:27:46.870Z,22.42
2024-03-05T10:30:59.637Z,19.50
2024-03-05T10:34:01.401Z,21.40
2024-03-05T10:37:05.451Z,21.67
2024-03-05T10:40:10.133Z,24.25
2024-03-05T10:43:12.072Z,22.17
2024-03-05T10:46:15.499Z,17.88
2024-03-05T10:49:20.675Z,26.05
2024-03-05T10:52:26.035Z,21.13
2024-03-05T10:55:28.708Z,22.48
2024-03-05T10:58:53.438Z,20.60
2024-03-05T11:01:59.892Z,20.65
2024-03-05T11:05:03.573Z,21.52
2024-03-05T11:08:07.508Z,31.42
2024-03-05T11:11:15.026Z,20.98
2024-03-05T11:14:18.802Z,25.15
2024-03-05T11:17:23.793Z,23.67
2024-03-05T11:20:44.506Z,18.58
2024-03-05T11:23:55.493Z,16.80
2024-03-05T11:27:12.742Z,19.15
2024-03-05T11:30:19.032Z,20.10
2024-03-05T11:33:25.558Z,16.33
2024-03-05T11:36:27.496Z,19.05
2024-03-05T11:39:29.485Z,14.90
2024-03-05T11:42:33.986Z,20.85
2024-03-05T11:45:49.473Z,19.73
2024-03-05T11:49:00.988Z,15.48
2024-03-05T11:52:02.786Z,19.08
2024-03-05T11:55:06.944Z,13.55
2024-03-05T11:58:08.731Z,14.57
2024-03-05T12:01:10.706Z,20.23
2024-03-05T12:04:14.471Z,21.83
2024-03-05T12:07:16.223Z,17.45
2024-03-05T12:10:20.808Z,14.50
2024-03-05T12:13:22.567Z,16.88
2024-03-05T12:16:24.457Z,16.13
2024-03-05T12:19:27.878Z,18.60
2024-03-05T12:22:29.643Z,21.60
2024-03-05T12:25:31.484Z,14.50
2024-03-05T12:28:33.379Z,16.65
2024-03-05T12:31:35.766Z,15.60
2024-03-05T12:34:41.016Z,13.98
2024-03-05T12:37:42.868Z,12.90
2024-03-05T12:40:45.044Z,14.43
2024-03-05T12:43:54.063Z,13.93
2024-03-05T12:47:09.493Z,9.45
2024-03-05T12:50:13.736Z,10.38
2024-03-05T12:53:15.929Z,10.90
2024-03-05T12:56:17.891Z,8.15
2024-03-05T12:59:20.789Z,9.68
2024-03-05T13:02:22.682Z,8.38
2024-03-05T13:05:25.816Z,9.93
2024-03-05T13:08:27.671Z,11.77
2024-03-05T13:11:29.525Z,10.43
2024-03-05T13:14:31.822Z,10.85
2024-03-05T13:17:34.028Z,11.18
2024-03-05T13:20:37.962Z,8.60
2024-03-05T13:23:41.451Z,10.05
2024-03-05T13:26:47.571Z,10.45
2024-03-05T13:29:55.915Z,9.57
2024-03-05T13:33:05.976Z,9.32
2024-03-05T13:36:13.293Z,10.32
2024-03-05T13:39:19.409Z,9.60
2024-03-05T13:42:22.266Z,13.63
2024-03-05T13:45:24.039Z,8.82
2024-03-05T13:48:26.821Z,10.27
2024-03-05T13:51:30.357Z,11.07
2024-03-05T13:54:32.171Z,10.93
2024-03-05T13:57:34.069Z,11.55
2024-03-05T14:00:39.021Z,12.90
2024-03-05T14:03:40.832Z,10.52
2024-03-05T14:06:43.863Z,11.13
2024-03-05T14:09:46.921Z,13.43
2024-03-05T14:12:51.441Z,11.48
2024-03-05T14:15:53.370Z,11.55
2024-03-05T14:18:55.322Z,12.57
2024-03-05T14:22:01.374Z,13.48
2024-03-05T14:25:03.671Z,13.52
2024-03-05T14:28:09.334Z,10.50
2024-03-05T14:31:12.633Z,13.07
2024-03-05T14:34:14.435Z,13.60
2024-03-05T14:37:17.450Z,9.18
2024-03-05T14:40:19.917Z,7.68
2024-03-05T14:43:22.449Z,8.27
2024-03-05T14:46:26.053Z,9.07
2024-03-05T14:49:28.257Z,7.60
2024-03-05T14:52:31.418Z,8.68
2024-03-05T14:55:33.323Z,8.75
2024-03-05T14:58:35.309Z,8.25
2024-03-05T15:01:37.106Z,10.68
2024-03-05T15:04:39.110Z,10.27
2024-03-05T15:07:43.761Z,11.02
2024-03-05T15:10:45.649Z,8.23
2024-03-05T15:13:47.566Z,11.27
2024-03-05T15:16:49.402Z,7.95
2024-03-05T15:19:51.176Z,7.10
2024-03-05T15:22:54.581Z,8.50
2024-03-05T15:25:56.373Z,8.50
2024-03-05T15:28:59.764Z,7.88
2024-03-05T15:32:02.517Z,9.73
2024-03-05T15:35:05.375Z,7.75
2024-03-05T15:38:09.228Z,7.53
2024-03-05T15:41:11.432Z,7.25
2024-03-05T15:44:13.481Z,9.30
2024-03-05T15:47:15.405Z,7.90
2024-03-05T15:50:22.435Z,6.30
2024-03-05T15:53:26.033Z,6.47
2024-03-05T15:56:46.694Z,6.45
2024-03-05T16:00:07.695Z,5.53
2024-03-05T16:03:15.054Z,4.97
2024-03-05T16:06:19.435Z,4.28
2024-03-05T16:09:23.179Z,5.55
2024-03-05T16:12:25.151Z,4.25
2024-03-05T16:15:27.746Z,4.03
2024-03-05T16:18:29.701Z,5.30
2024-03-05T16:21:34.297Z,5.80
2024-03-05T16:24:37.374Z,4.00
2024-03-05T16:27:40.935Z,3.58
2024-03-05T16:30:43.551Z,3.42
2024-03-05T16:33:45.697Z,3.83
2024-03-05T16:36:48.571Z,3.50
2024-03-05T16:39:52.021Z,4.10
2024-03-05T16:42:55.142Z,4.60
2024-03-05T16:45:58.518Z,4.93
2024-03-05T16:49:02.243Z,4.30
2024-03-05T16:52:05.561Z,5.15
2024-03-05T16:55:10.489Z,4.10
2024-03-05T16:58:15.433Z,4.72
2024-03-05T17:01:19.713Z,3.63
2024-03-05T17:04:24.804Z,3.38
2024-03-05T17:07:28.655Z,3.50
2024-03-05T17:10:35.462Z,3.45
2024-03-05T17:13:42.366Z,5.30
2024-03-05T17:16:46.856Z,5.78
2024-03-05T17:19:48.877Z,3.67
2024-03-05T17:22:53.121Z,3.92
2024-03-05T17:25:58.064Z,4.82
2024-03-05T17:29:06.953Z,3.75
2024-03-05T17:32:10.774Z,4.53
2024-03-05T17:35:12.992Z,6.90
2024-03-05T17:38:15.155Z,5.97
2024-03-05T17:41:18.563Z,4.65
2024-03-05T17:44:20.455Z,4.47
2024-03-05T17:47:22.721Z,7.75
2024-03-05T17:50:25.784Z,4.22
2024-03-05T17:53:27.660Z,4.70
2024-03-05T17:56:31.301Z,6.55
2024-03-05T17:59:33.726Z,4.22
2024-03-05T18:02:36.435Z,4.97
2024-03-05T18:05:38.644Z,4.88
2024-03-05T18:08:40.655Z,6.78
2024-03-05T18:11:43.793Z,12.55
2024-03-05T18:14:47.041Z,8.35
2024-03-05T18:17:50.024Z,6.90
2024-03-05T18:20:51.923Z,6.85
2024-03-05T18:23:55.590Z,8.38
2024-03-05T18:27:04.885Z,8.70
2024-03-05T18:30:09.075Z,4.75
2024-03-05T18:33:12.516Z,5.80
2024-03-05T18:36:16.759Z,4.80
2024-03-05T18:39:19.009Z,4.63
2024-03-05T18:42:22.325Z,12.68
2024-03-05T18:45:29.315Z,6.35
2024-03-05T18:48:31.434Z,5.22
2024-03-05T18:51:33.821Z,6.75
2024-03-05T18:54:35.703Z,8.27
2024-03-05T18:57:39.012Z,7.00
2024-03-05T19:00:44.488Z,7.32
2024-03-05T19:03:46.441Z,8.05
2024-03-05T19:06:49.035Z,8.68
2024-03-05T19:09:50.742Z,7.75
2024-03-05T19:12:55.131Z,7.10
2024-03-05T19:15:56.848Z,6.22
2024-03-05T19:18:58.717Z,7.53
2024-03-05T19:22:00.376Z,7.25
2024-03-05T19:25:03.356Z,8.32
2024-03-05T19:28:07.971Z,7.38
2024-03-05T19:31:10.822Z,7.78
2024-03-05T19:34:13.115Z,7.57
2024-03-05T19:37:16.418Z,8.95
2024-03-05T19:40:20.369Z,7.20
2024-03-05T19:43:23.602Z,5.80
2024-03-05T19:46:25.586Z,7.10
2024-03-05T19:49:29.197Z,6.85
2024-03-05T19:52:31.105Z,9.15
2024-03-05T19:55:34.552Z,9.93
2024-03-05T19:58:38.420Z,6.80
2024-03-05T20:01:40.571Z,8.90
2024-03-05T20:04:42.399Z,9.27
2024-03-05T20:07:45.662Z,12.75
2024-03-05T20:10:47.914Z,8.10
2024-03-05T20:13:51.140Z,13.65
2024-03-05T20:16:53.267Z,7.35
2024-03-05T20:19:55.198Z,7.45
2024-03-05T20:22:57.571Z,8.68
2024-03-05T20:25:59.443Z,5.18
2024-03-05T20:29:03.901Z,10.48
2024-03-05T20:32:07.272Z,6.10
2024-03-05T20:35:13.544Z,5.22
2024-03-05T20:38:15.718Z,6.00
2024-03-05T20:41:18.668Z,6.38
2024-03-05T20:44:21.942Z,6.18
2024-03-05T20:47:23.810Z,8.43
2024-03-05T20:50:25.756Z,6.90
2024-03-05T20:53:27.511Z,6.55
2024-03-05T20:56:29.320Z,6.20
2024-03-05T20:59:34.789Z,7.28
2024-03-05T21:02:37.052Z,7.15
2024-03-05T21:05:41.732Z,9.95
2024-03-05T21:08:43.661Z,9.38
2024-03-05T21:11:47.309Z,8.50
2024-03-05T21:14:50.553Z,11.07
2024-03-05T21:17:55.177Z,10.20
2024-03-05T21:20:57.140Z,10.35
2024-03-05T21:23:58.970Z,8.73
2024-03-05T21:27:16.123Z,7.50
2024-03-05T21:30:24.152Z,6.80
2024-03-05T21:33:26.169Z,7.53
2024-03-05T21:36:28.047Z,6.53
2024-03-05T21:39:29.964Z,5.32
2024-03-05T21:42:32.223Z,5.68
2024-03-05T21:45:36.546Z,6.72
2024-03-05T21:48:38.480Z,5.60
2024-03-05T21:51:40.385Z,6.55
2024-03-05T21:54:42.265Z,11.38
2024-03-05T21:57:44.360Z,8.95
2024-03-05T22:00:48.649Z,13.18
2024-03-05T22:03:50.552Z,8.60
2024-03-05T22:06:55.793Z,8.93
2024-03-05T22:09:58.026Z,9.38
2024-03-05T22:12:59.817Z,8.40
2024-03-05T22:16:03.552Z,8.13
2024-03-05T22:19:06.055Z,7.80
2024-03-05T22:22:10.220Z,9.13
2024-03-05T22:25:11.997Z,8.90
2024-03-05T22:28:16.041Z,11.85
2024-03-05T22:31:19.189Z,8.50
2024-03-05T22:34:21.094Z,7.97
2024-03-05T22:37:22.944Z,8.88
2024-03-05T22:40:24.807Z,6.65
2024-03-05T22:43:27.203Z,8.23
2024-03-05T22:46:30.466Z,6.85
2024-03-05T22:49:32.417Z,7.85
2024-03-05T22:52:34.429Z,6.28
2024-03-05T22:55:36.880Z,7.45
2024-03-05T22:58:39.068Z,7.38
2024-03-05T23:01:42.512Z,8.57
2024-03-05T23:04:44.372Z,6.15
2024-03-05T23:07:47.203Z,9.40
2024-03-05T23:10:49.803Z,11.13
2024-03-05T23:13:53.422Z,6.88
2024-03-05T23:16:56.921Z,6.90
2024-03-05T23:19:59.040Z,8.88
2024-03-05T23:23:00.985Z,9.43
2024-03-05T23:26:03.778Z,10.02
2024-03-05T23:29:05.923Z,9.77
2024-03-05T23:32:09.844Z,6.65
2024-03-05T23:35:12.518Z,5.85
2024-03-05T23:38:14.420Z,6.93
2024-03-05T23:41:24.848Z,8.07
2024-03-05T23:44:33.426Z,6.97
2024-03-05T23:47:37.045Z,7.47
2024-03-05T23:50:38.869Z,6.35
2024-03-05T23:53:40.698Z,10.23
2024-03-05T23:56:42.647Z,8.48
2024-03-05T23:59:45.835Z,9.38
